Data for 12/22/2016

Time Sea-Level Adjusted Pressure Absolute Pressure Temperature Relative Humidity Dew Point   
(mb) (inHg) (mb) (inHg) (C) (F) (%) (C) (F)
00:05 1026 30.3 855 25.25 -8 17.5 53 -16.1 3.1
00:10 1026 30.3 855 25.25 -8.2 17.2 53 -16.1 3
00:15 1026 30.3 855 25.25 -8.6 16.5 55 -16.2 2.8
00:20 1026 30.3 855 25.25 -9.1 15.6 57 -16.2 2.9
00:25 1025 30.27 855 25.25 -9.6 14.7 58 -16.5 2.3
00:30 1025 30.27 855 25.25 -9.4 15.1 56 -16.6 2.2
00:35 1025 30.27 855 25.25 -9.5 14.9 58 -16.4 2.5
00:40 1025 30.27 854 25.22 -9.5 14.9 57 -16.6 2.1
00:45 1025 30.27 854 25.22 -9.3 15.3 55 -16.8 1.8
00:50 1025 30.27 854 25.22 -9.4 15.1 55 -16.8 1.8
00:55 1025 30.27 854 25.22 -9.4 15 55 -16.9 1.7
01:00 1025 30.27 854 25.22 -9.2 15.5 54 -16.8 1.8
01:05 1025 30.27 854 25.22 -8.8 16.2 54 -16.4 2.4
01:10 1025 30.27 854 25.22 -8.8 16.1 55 -16.4 2.5
01:15 1025 30.27 854 25.22 -9.1 15.6 55 -16.6 2.2
01:20 1025 30.27 854 25.22 -8.9 15.9 53 -16.9 1.6
01:25 1025 30.27 854 25.22 -9.2 15.5 54 -16.8 1.7
01:30 1025 30.27 854 25.22 -9.2 15.5 54 -16.9 1.5
01:35 1025 30.27 854 25.22 -9.1 15.6 54 -16.8 1.8
01:40 1025 30.27 854 25.22 -9 15.8 53 -16.9 1.6
01:45 1025 30.27 854 25.22 -8.8 16.2 53 -16.7 1.9
01:50 1025 30.27 854 25.22 -9.1 15.6 54 -16.7 1.9
01:55 1025 30.27 854 25.22 -8.9 16 54 -16.7 1.9
02:00 1025 30.27 854 25.22 -8.3 17 51 -16.8 1.7
02:05 1025 30.27 854 25.22 -7.3 18.8 47 -16.7 1.9
02:10 1025 30.27 854 25.22 -7.3 18.8 46 -17 1.4
02:15 1025 30.27 854 25.22 -7.2 19.1 46 -17 1.5
02:20 1025 30.27 854 25.22 -7.7 18.2 48 -16.9 1.5
02:25 1024 30.24 854 25.22 -8.4 16.9 50 -17 1.5
02:30 1024 30.24 854 25.22 -8.3 17 49 -17.4 0.8
02:35 1024 30.24 854 25.22 -8.5 16.7 50 -17.3 0.9
02:40 1024 30.24 853 25.19 -8.7 16.3 50 -17.4 0.8
02:45 1024 30.24 853 25.19 -8.9 16 50 -17.5 0.5
02:50 1024 30.24 853 25.19 -8.8 16.2 50 -17.4 0.6
02:55 1024 30.24 853 25.19 -8.9 16 50 -17.5 0.4
03:00 1024 30.24 853 25.19 -9.1 15.6 52 -17.2 1
03:05 1024 30.24 853 25.19 -8.6 16.5 48 -17.7 0.1
03:10 1024 30.24 853 25.19 -8.8 16.2 49 -17.6 0.3
03:15 1024 30.24 853 25.19 -8.5 16.7 48 -17.7 0.1
03:20 1024 30.24 853 25.19 -8.7 16.4 49 -17.6 0.3
03:25 1024 30.24 853 25.19 -9 15.8 50 -17.6 0.3
03:30 1024 30.24 853 25.19 -8.9 16 48 -18.1 -0.5
03:35 1024 30.24 853 25.19 -8.3 17 47 -17.7 0.1
03:40 1024 30.24 853 25.19 -8.5 16.6 47 -17.9 -0.2
03:45 1024 30.24 853 25.19 -9.2 15.5 50 -17.9 -0.2
03:50 1024 30.24 853 25.19 -9.6 14.8 50 -18.1 -0.6
03:55 1024 30.24 853 25.19 -9.2 15.4 49 -18 -0.4
04:00 1024 30.24 853 25.19 -8.7 16.4 47 -18 -0.4
04:05 1024 30.24 853 25.19 -8.4 16.9 47 -17.9 -0.2
04:10 1024 30.24 853 25.19 -8.4 17 46 -17.9 -0.3
04:15 1024 30.24 853 25.19 -7.9 17.8 45 -17.8 -0
04:20 1024 30.24 853 25.19 -8 17.6 47 -17.5 0.5
04:25 1023 30.21 853 25.19 -8 17.7 45 -17.9 -0.2
04:30 1023 30.21 853 25.19 -7.3 18.8 43 -18 -0.4
04:35 1023 30.21 853 25.19 -7.5 18.5 44 -17.7 0.1
04:40 1023 30.21 853 25.19 -8.2 17.3 47 -17.7 0.2
04:45 1023 30.21 853 25.19 -8.4 16.9 47 -17.9 -0.3
04:50 1023 30.21 853 25.19 -8.3 17.1 45 -18.1 -0.7
04:55 1023 30.21 852 25.16 -8.5 16.7 47 -17.8 -0.1
05:00 1023 30.21 852 25.16 -8.7 16.4 48 -17.7 0.1
05:05 1023 30.21 852 25.16 -9.1 15.6 52 -17.2 1
05:10 1023 30.21 852 25.16 -9.6 14.7 53 -17.4 0.6
05:15 1023 30.21 852 25.16 -10.3 13.5 54 -17.9 -0.3
05:20 1023 30.21 852 25.16 -11 12.3 56 -18.2 -0.8
05:25 1023 30.21 852 25.16 -10.5 13.1 52 -18.6 -1.4
05:30 1023 30.21 852 25.16 -10.4 13.3 52 -18.5 -1.2
05:35 1023 30.21 852 25.16 -10.5 13.2 53 -18.2 -0.8
05:40 1023 30.21 852 25.16 -10.6 12.9 56 -17.7 0.1
05:45 1023 30.21 852 25.16 -10.8 12.6 55 -18.1 -0.6
05:50 1023 30.21 852 25.16 -10.6 13 52 -18.6 -1.5
05:55 1023 30.21 852 25.16 -10.4 13.2 53 -18.3 -0.9
06:00 1023 30.21 852 25.16 -10.4 13.3 52 -18.4 -1.1
06:05 1023 30.21 852 25.16 -11.1 12 56 -18.3 -1
06:10 1023 30.21 852 25.16 -11.7 10.9 56 -18.8 -1.9
06:15 1023 30.21 852 25.16 -11.7 11 57 -18.7 -1.7
06:20 1023 30.21 852 25.16 -11.4 11.5 55 -18.7 -1.6
06:25 1023 30.21 852 25.16 -11.3 11.6 56 -18.5 -1.4
06:30 1023 30.21 852 25.16 -11.2 11.9 57 -18 -0.4
06:35 1023 30.21 852 25.16 -11 12.3 56 -18.2 -0.7
06:40 1023 30.21 852 25.16 -10.8 12.5 57 -17.8 0
06:45 1023 30.21 852 25.16 -11 12.1 59 -17.6 0.4
06:50 1023 30.21 852 25.16 -11.2 11.9 57 -18.1 -0.5
06:55 1023 30.21 852 25.16 -11.3 11.7 60 -17.6 0.3
07:00 1023 30.21 852 25.16 -11.7 10.9 60 -18 -0.4
07:05 1023 30.21 852 25.16 -11.5 11.4 58 -18.2 -0.7
07:10 1023 30.21 852 25.16 -11 12.2 58 -17.6 0.3
07:15 1023 30.21 852 25.16 -11.7 11 60 -17.9 -0.2
07:20 1023 30.21 852 25.16 -11.9 10.6 61 -18 -0.5
07:25 1023 30.21 852 25.16 -12 10.4 59 -18.4 -1.1
07:30 1023 30.21 852 25.16 -12 10.3 59 -18.4 -1.2
07:35 1023 30.21 852 25.16 -12.1 10.2 59 -18.6 -1.4
07:40 1023 30.21 852 25.16 -12.5 9.5 61 -18.6 -1.4
07:45 1023 30.21 852 25.16 -12.2 10 60 -18.6 -1.4
07:50 1022 30.18 852 25.16 -11.6 11.2 57 -18.4 -1.2
07:55 1022 30.18 852 25.16 -11.7 11 58 -18.3 -1
08:00 1022 30.18 852 25.16 -12 10.5 60 -18.2 -0.8
08:05 1022 30.18 851 25.13 -11.9 10.5 60 -18.2 -0.8
08:10 1022 30.18 851 25.13 -11.3 11.6 58 -18.1 -0.6
08:15 1022 30.18 851 25.13 -11.7 11 61 -17.9 -0.1
08:20 1022 30.18 851 25.13 -11.8 10.7 61 -18 -0.4
08:25 1022 30.18 851 25.13 -11.6 11.2 60 -17.9 -0.1
08:30 1022 30.18 851 25.13 -11.8 10.8 61 -17.8 -0.1
08:35 1022 30.18 851 25.13 -11.6 11 61 -17.7 0.1
08:40 1022 30.18 851 25.13 -11.7 10.9 60 -17.9 -0.3
08:45 1022 30.18 851 25.13 -11.6 11.1 59 -18.2 -0.8
08:50 1022 30.18 851 25.13 -11.5 11.4 56 -18.5 -1.3
08:55 1022 30.18 851 25.13 -12 10.5 58 -18.6 -1.5
09:00 1022 30.18 851 25.13 -11.9 10.5 57 -18.9 -2
09:05 1021 30.15 851 25.13 -11.1 12.1 54 -18.7 -1.7
09:10 1021 30.15 851 25.13 -10.8 12.6 54 -18.4 -1
09:15 1021 30.15 850 25.1 -11 12.3 54 -18.5 -1.3
09:20 1021 30.15 850 25.1 -11.5 11.4 57 -18.4 -1.2
09:25 1021 30.15 850 25.1 -12.1 10.3 58 -18.8 -1.9
09:30 1021 30.15 850 25.1 -11.1 12.1 53 -18.9 -2.1
09:35 1021 30.15 850 25.1 -10.4 13.4 51 -18.8 -1.8
09:40 1021 30.15 850 25.1 -10.8 12.5 52 -18.9 -2.1
09:45 1021 30.15 850 25.1 -11.4 11.5 54 -18.9 -2.1
09:50 1021 30.15 850 25.1 -11 12.3 52 -19 -2.3
09:55 1021 30.15 850 25.1 -11.2 11.8 53 -19.1 -2.4
10:00 1021 30.15 850 25.1 -11.2 11.9 54 -18.7 -1.7
10:05 1021 30.15 850 25.1 -11 12.1 54 -18.7 -1.7
10:10 1021 30.15 850 25.1 -11 12.3 52 -19.1 -2.4
10:15 1021 30.15 850 25.1 -10.7 12.8 50 -19.2 -2.6
10:20 1021 30.15 850 25.1 -10.4 13.3 49 -19.1 -2.4
10:25 1021 30.15 850 25.1 -9.2 15.5 44 -19.2 -2.6
10:30 1020 30.12 850 25.1 -8.6 16.6 44 -18.7 -1.7
10:35 1020 30.12 849 25.07 -8.3 17.1 42 -19.2 -2.5
10:40 1020 30.12 849 25.07 -7.8 17.9 41 -19 -2.2
10:45 1020 30.12 849 25.07 -7.9 17.8 41 -18.9 -2
10:50 1020 30.12 849 25.07 -7.6 18.3 41 -18.9 -2
10:55 1020 30.12 849 25.07 -7.1 19.2 40 -18.5 -1.2
11:00 1020 30.12 849 25.07 -7.6 18.4 41 -18.7 -1.6
11:05 1020 30.12 849 25.07 -7.7 18.1 42 -18.7 -1.6
11:10 1020 30.12 849 25.07 -7.7 18.2 40 -19 -2.3
11:15 1020 30.12 849 25.07 -7 19.5 38 -18.9 -2.1
11:20 1020 30.12 849 25.07 -7 19.3 39 -18.8 -1.8
11:25 1020 30.12 849 25.07 -6.9 19.5 39 -18.8 -1.8
11:30 1020 30.12 849 25.07 -6.9 19.5 39 -18.8 -1.8
11:35 1020 30.12 849 25.07 -6 21.2 35 -19.2 -2.6
11:40 1020 30.12 849 25.07 -5.5 22.2 35 -18.6 -1.4
11:45 1020 30.12 849 25.07 -4.7 23.6 35 -17.9 -0.2
11:50 1020 30.12 849 25.07 -4.3 24.3 35 -17.6 0.3
11:55 1020 30.12 849 25.07 -4.1 24.6 34 -17.9 -0.3
12:00 1020 30.12 849 25.07 -4 24.7 36 -17.2 1.1
12:05 1020 30.12 849 25.07 -5 23 38 -17.2 1
12:10 1020 30.12 849 25.07 -5.1 22.9 38 -17.4 0.6
12:15 1019 30.09 849 25.07 -4.9 23.2 38 -17.2 1.1
12:20 1019 30.09 848 25.04 -6.2 20.9 44 -16.4 2.4
12:25 1019 30.09 848 25.04 -6.2 20.8 42 -17.2 1
12:30 1019 30.09 848 25.04 -5.3 22.4 41 -16.6 2
12:35 1019 30.09 848 25.04 -5.1 22.9 40 -16.6 2.2
12:40 1019 30.09 848 25.04 -5.2 22.7 41 -16.4 2.5
12:45 1019 30.09 848 25.04 -5 22.9 40 -16.8 1.8
12:50 1019 30.09 848 25.04 -5.1 22.8 39 -17.1 1.2
12:55 1019 30.09 848 25.04 -5.1 22.8 41 -16.5 2.2
13:00 1019 30.09 848 25.04 -4.7 23.5 39 -16.8 1.8
13:05 1018 30.06 848 25.04 -5.2 22.6 41 -16.5 2.3
13:10 1018 30.06 848 25.04 -5.2 22.6 41 -16.6 2.1
13:15 1018 30.06 847 25.01 -5.1 22.9 39 -16.9 1.6
13:20 1018 30.06 847 25.01 -4.8 23.4 39 -16.8 1.7
13:25 1018 30.06 847 25.01 -4.4 24.1 37 -17.2 1
13:30 1018 30.06 847 25.01 -3.9 24.9 38 -16.4 2.4
13:35 1018 30.06 847 25.01 -3.4 25.9 35 -16.6 2
13:40 1017 30.03 847 25.01 -3 26.6 36 -16.2 2.8
13:45 1017 30.03 847 25.01 -2.5 27.6 35 -15.9 3.5
13:50 1017 30.03 847 25.01 -2.8 27 36 -16 3.2
13:55 1017 30.03 846 24.98 -2.6 27.4 35 -16 3.2
14:00 1017 30.03 846 24.98 -2.2 28 34 -16.2 2.8
14:05 1017 30.03 846 24.98 -2.6 27.2 36 -15.9 3.4
14:10 1017 30.03 846 24.98 -2 28.4 34 -15.8 3.5
14:15 1017 30.03 846 24.98 -1.7 28.9 32 -16.5 2.3
14:20 1017 30.03 846 24.98 -1.3 29.7 30 -16.7 1.9
14:25 1017 30.03 846 24.98 -1.8 28.8 30 -17.3 0.8
14:30 1016 30 846 24.98 -2.5 27.5 30 -17.8 -0
14:35 1016 30 846 24.98 -2.1 28.2 31 -17.1 1.2
14:40 1016 30 845 24.95 -2 28.4 32 -16.8 1.8
14:45 1016 30 845 24.95 -1.4 29.4 30 -16.7 1.9
14:50 1016 30 845 24.95 -1.5 29.3 31 -16.7 1.9
14:55 1016 30 845 24.95 -1 30.2 30 -16.5 2.3
15:00 1016 30 845 24.95 -1.3 29.7 31 -16.2 2.9
15:05 1016 30 845 24.95 -1.3 29.7 30 -17 1.5
15:10 1016 30 845 24.95 -1 30.2 31 -16.3 2.7
15:15 1015 29.97 845 24.95 -1 30.2 29 -16.8 1.8
15:20 1015 29.97 844 24.92 -1.1 29.9 33 -15.4 4.3
15:25 1015 29.97 844 24.92 -1.5 29.4 34 -15.4 4.2
15:30 1015 29.97 844 24.92 -1.7 28.9 34 -15.6 3.9
15:35 1015 29.97 844 24.92 -1.8 28.8 35 -15.3 4.5
15:40 1015 29.97 844 24.92 -0.9 30.3 33 -15.4 4.3
15:45 1015 29.97 844 24.92 -0.7 30.8 32 -15.4 4.3
15:50 1015 29.97 844 24.92 -0.8 30.6 32 -15.3 4.4
15:55 1015 29.97 844 24.92 -1.1 30.1 34 -15.2 4.6
16:00 1015 29.97 844 24.92 -1 30.3 34 -14.9 5.3
16:05 1015 29.97 844 24.92 -1.3 29.7 37 -14.4 6.2
16:10 1015 29.97 844 24.92 -1.7 28.9 38 -14.2 6.4
16:15 1015 29.97 844 24.92 -1.6 29 38 -14.1 6.6
16:20 1015 29.97 844 24.92 -1.8 28.8 39 -14 6.8
16:25 1015 29.97 844 24.92 -1.9 28.6 39 -14 6.8
16:30 1015 29.97 844 24.92 -1.7 29 38 -14.3 6.2
16:35 1015 29.97 844 24.92 -2.6 27.3 40 -14.5 5.8
16:40 1015 29.97 844 24.92 -2.9 26.8 42 -14.1 6.6
16:45 1015 29.97 844 24.92 -4 24.8 43 -14.7 5.5
16:50 1015 29.97 844 24.92 -4.4 24 45 -14.6 5.8
16:55 1014 29.94 844 24.92 -4.3 24.3 45 -14.5 5.9
17:00 1014 29.94 844 24.92 -4.8 23.4 46 -14.7 5.5
17:05 1014 29.94 843 24.89 -5.2 22.7 47 -14.8 5.3
17:10 1014 29.94 843 24.89 -5.2 22.6 47 -14.9 5.2
17:15 1014 29.94 843 24.89 -5.2 22.7 48 -14.5 5.9
17:20 1014 29.94 843 24.89 -5.4 22.2 49 -14.6 5.7
17:25 1014 29.94 843 24.89 -5.4 22.2 49 -14.5 5.9
17:30 1014 29.94 843 24.89 -5.6 21.9 51 -14.3 6.3
17:35 1014 29.94 843 24.89 -5.8 21.6 50 -14.6 5.8
17:40 1014 29.94 843 24.89 -5.8 21.5 47 -15.3 4.4
17:45 1014 29.94 843 24.89 -5.8 21.5 50 -14.8 5.4
17:50 1014 29.94 843 24.89 -5.9 21.4 48 -15.2 4.6
17:55 1014 29.94 843 24.89 -5.7 21.7 45 -15.8 3.5
18:00 1014 29.94 843 24.89 -5.6 22 44 -16.1 3.1
18:05 1014 29.94 843 24.89 -5.4 22.2 44 -15.9 3.4
18:10 1014 29.94 843 24.89 -5.3 22.4 43 -16.1 3
18:15 1013 29.91 843 24.89 -5.4 22.3 51 -14 6.8
18:20 1014 29.94 843 24.89 -5.8 21.5 53 -14 6.7
18:25 1013 29.91 843 24.89 -6.1 21.1 54 -14 6.7
18:30 1013 29.91 843 24.89 -6.4 20.5 55 -14.1 6.7
18:35 1014 29.94 843 24.89 -6.5 20.2 55 -14.2 6.4
18:40 1014 29.94 843 24.89 -6.9 19.6 55 -14.4 6.1
18:45 1014 29.94 843 24.89 -7.3 19 58 -14.2 6.4
18:50 1013 29.91 843 24.89 -8 17.7 60 -14.4 6.2
18:55 1013 29.91 843 24.89 -7.9 17.8 59 -14.5 5.8
19:00 1013 29.91 843 24.89 -7.7 18.1 58 -14.5 5.8
19:05 1013 29.91 842 24.86 -7.8 18 59 -14.5 5.8
19:10 1013 29.91 842 24.86 -8.1 17.3 60 -14.6 5.7
19:15 1013 29.91 842 24.86 -8.2 17.2 56 -15.6 4
19:20 1013 29.91 842 24.86 -8.1 17.4 54 -15.9 3.4
19:25 1013 29.91 842 24.86 -8.2 17.3 54 -15.9 3.4
19:30 1013 29.91 842 24.86 -7.8 18 54 -15.5 4.1
19:35 1013 29.91 842 24.86 -8.7 16.3 57 -15.9 3.4
19:40 1013 29.91 842 24.86 -8.1 17.3 54 -15.9 3.4
19:45 1013 29.91 842 24.86 -7.5 18.5 52 -15.8 3.5
19:50 1013 29.91 842 24.86 -7.6 18.4 51 -16 3.3
19:55 1013 29.91 842 24.86 -7.6 18.3 52 -15.9 3.4
20:00 1013 29.91 842 24.86 -7.9 17.9 52 -16 3.2
20:05 1013 29.91 842 24.86 -8.2 17.3 52 -16.3 2.6
20:10 1013 29.91 842 24.86 -8.6 16.6 53 -16.6 2.1
20:15 1013 29.91 842 24.86 -8.5 16.7 55 -16.1 3
20:20 1013 29.91 842 24.86 -8.9 16 55 -16.4 2.6
20:25 1013 29.91 842 24.86 -9.4 15.1 54 -17.1 1.3
20:30 1013 29.91 842 24.86 -9.4 15.1 53 -17.3 0.9
20:35 1013 29.91 842 24.86 -9.1 15.7 54 -16.7 1.9
20:40 1013 29.91 842 24.86 -8.8 16.2 53 -16.8 1.8
20:45 1013 29.91 842 24.86 -8.4 16.8 50 -17 1.4
20:50 1013 29.91 842 24.86 -8.2 17.3 47 -17.6 0.4
20:55 1013 29.91 842 24.86 -8 17.5 49 -17.1 1.2
21:00 1012 29.88 842 24.86 -8 17.6 50 -16.8 1.8
21:05 1012 29.88 842 24.86 -8.3 17 51 -16.7 1.9
21:10 1012 29.88 842 24.86 -8 17.7 47 -17.5 0.5
21:15 1012 29.88 841 24.83 -7.7 18.2 45 -17.5 0.4
21:20 1012 29.88 841 24.83 -7.8 17.9 46 -17.6 0.3
21:25 1012 29.88 841 24.83 -8.4 16.8 47 -17.8 -0.1
21:30 1012 29.88 841 24.83 -8.4 17 46 -18.1 -0.5
21:35 1012 29.88 841 24.83 -8.5 16.7 45 -18.4 -1.2
21:40 1012 29.88 841 24.83 -8.2 17.2 44 -18.4 -1.1
21:45 1012 29.88 841 24.83 -7.8 17.9 43 -18.4 -1.2
21:50 1012 29.88 841 24.83 -7.6 18.3 42 -18.6 -1.5
21:55 1011 29.85 841 24.83 -7.4 18.6 41 -18.6 -1.5
22:00 1011 29.85 841 24.83 -7.5 18.5 41 -18.7 -1.6
22:05 1011 29.85 841 24.83 -7.9 17.7 42 -18.8 -1.8
22:10 1011 29.85 841 24.83 -8.1 17.5 42 -18.9 -2
22:15 1011 29.85 841 24.83 -7.7 18.2 40 -19.2 -2.6
22:20 1011 29.85 841 24.83 -7.3 18.9 39 -19.1 -2.3
22:25 1011 29.85 841 24.83 -6.7 19.9 37 -19.2 -2.6
22:30 1011 29.85 841 24.83 -6.1 21.1 36 -19 -2.2
22:35 1011 29.85 841 24.83 -5.6 22 34 -19.2 -2.6
22:40 1011 29.85 841 24.83 -5.3 22.4 34 -19 -2.2
22:45 1011 29.85 841 24.83 -5.2 22.7 34 -18.8 -1.8
22:50 1011 29.85 841 24.83 -5.7 21.7 37 -18.2 -0.8
22:55 1012 29.88 841 24.83 -6.9 19.5 43 -17.4 0.6
23:00 1012 29.88 841 24.83 -8.6 16.4 45 -18.6 -1.4
23:05 1012 29.88 841 24.83 -9.8 14.3 46 -19.4 -3
23:10 1012 29.88 841 24.83 -7.6 18.3 38 -19.6 -3.3
23:15 1012 29.88 841 24.83 -6.4 20.4 37 -18.9 -2
23:20 1012 29.88 841 24.83 -6.6 20 38 -18.7 -1.6
23:25 1012 29.88 841 24.83 -7.2 19.1 41 -18.4 -1.1
23:30 1012 29.88 841 24.83 -7.6 18.3 43 -18 -0.4
23:35 1012 29.88 841 24.83 -7.7 18.1 43 -18.1 -0.7
23:40 1011 29.85 841 24.83 -7.4 18.6 42 -18.2 -0.7
23:45 1011 29.85 841 24.83 -7.3 18.9 42 -18 -0.5
23:50 1011 29.85 841 24.83 -6.9 19.6 41 -18.2 -0.7
23:55 1011 29.85 841 24.83 -6.9 19.6 41 -18.2 -0.7
24:00 1011 29.85 841 24.83 -7.4 18.7 44 -17.7 0.1